Terminal Aerodrome Forecast
Issued by NWS North Platte, NE

Home | Current Version | Previous Version | Text Only | Print | Product List | Glossary On
Versions: 1 2 3 4 5 6 7 8 9 10 11 12 13 14
458
FTUS43 KLBF 211720
TAFLBF
TAF
KLBF 211720Z 2118/2218 16012KT P6SM SKC
     FM211900 16012G20KT P6SM SKC
     FM220200 14010KT P6SM SKC WS020/19035KT
     FM220300 14010KT P6SM SKC WS020/18045KT
     FM221400 17013KT P6SM FEW200 WS006/19015KT=

USA.gov is the U.S. government's official web portal to all federal, state and local government web resources and services.